createdAt,value
2023-07-17T00:00:07.325Z,17.69
2023-07-17T00:02:34.445Z,17.70
2023-07-17T00:05:01.433Z,17.47
2023-07-17T00:07:28.359Z,17.29
2023-07-17T00:09:55.007Z,17.53
2023-07-17T00:12:21.956Z,17.21
2023-07-17T00:14:49.168Z,17.29
2023-07-17T00:17:16.374Z,16.53
2023-07-17T00:20:10.996Z,17.13
2023-07-17T00:22:37.737Z,17.01
2023-07-17T00:25:05.484Z,16.88
2023-07-17T00:27:32.743Z,16.75
2023-07-17T00:29:59.360Z,16.86
2023-07-17T00:32:26.112Z,16.75
2023-07-17T00:34:52.830Z,16.57
2023-07-17T00:37:19.792Z,16.60
2023-07-17T00:39:46.608Z,16.55
2023-07-17T00:42:13.298Z,16.60
2023-07-17T00:44:39.977Z,16.18
2023-07-17T00:47:07.130Z,16.56
2023-07-17T00:49:34.741Z,16.55
2023-07-17T00:52:02.104Z,16.33
2023-07-17T00:54:30.371Z,16.42
2023-07-17T00:56:59.261Z,16.06
2023-07-17T00:59:27.055Z,16.55
2023-07-17T01:01:54.581Z,16.45
2023-07-17T01:04:21.347Z,16.38
2023-07-17T01:06:48.101Z,16.39
2023-07-17T01:09:17.626Z,16.45
2023-07-17T01:11:44.349Z,16.50
2023-07-17T01:14:19.486Z,16.38
2023-07-17T01:16:48.379Z,16.45
2023-07-17T01:19:15.242Z,16.48
2023-07-17T01:21:54.435Z,16.47
2023-07-17T01:24:21.251Z,16.37
2023-07-17T01:26:48.645Z,16.46
2023-07-17T01:29:15.572Z,16.30
2023-07-17T01:31:43.759Z,16.31
2023-07-17T01:34:10.929Z,16.16
2023-07-17T01:36:37.637Z,15.86
2023-07-17T01:39:04.600Z,15.69
2023-07-17T01:41:31.382Z,15.46
2023-07-17T01:43:58.497Z,15.89
2023-07-17T01:46:25.215Z,15.99
2023-07-17T01:48:52.847Z,15.98
2023-07-17T01:51:19.658Z,15.88
2023-07-17T01:53:46.510Z,15.25
2023-07-17T01:56:13.140Z,15.65
2023-07-17T01:58:40.116Z,15.70
2023-07-17T02:01:08.603Z,15.52
2023-07-17T02:03:37.241Z,15.58
2023-07-17T02:06:04.386Z,15.45
2023-07-17T02:08:31.182Z,15.53
2023-07-17T02:10:57.872Z,15.36
2023-07-17T02:13:24.829Z,15.31
2023-07-17T02:15:51.514Z,15.36
2023-07-17T02:18:18.316Z,15.10
2023-07-17T02:20:45.391Z,15.46
2023-07-17T02:23:12.213Z,15.39
2023-07-17T02:25:39.113Z,15.46
2023-07-17T02:28:05.767Z,15.41
2023-07-17T02:30:32.431Z,15.38
2023-07-17T02:32:59.131Z,15.25
2023-07-17T02:35:25.862Z,15.27
2023-07-17T02:37:52.645Z,15.24
2023-07-17T02:40:19.425Z,15.12
2023-07-17T02:42:46.128Z,15.07
2023-07-17T02:45:12.833Z,15.19
2023-07-17T02:47:39.645Z,15.07
2023-07-17T02:50:06.913Z,14.97
2023-07-17T02:52:36.293Z,14.62
2023-07-17T02:55:07.515Z,14.54
2023-07-17T02:57:35.456Z,14.88
2023-07-17T03:00:08.657Z,14.06
2023-07-17T03:02:36.547Z,14.81
2023-07-17T03:05:06.222Z,14.75
2023-07-17T03:07:33.758Z,14.77
2023-07-17T03:10:00.453Z,14.73
2023-07-17T03:12:27.230Z,14.63
2023-07-17T03:14:53.943Z,14.70
2023-07-17T03:17:20.617Z,14.67
2023-07-17T03:19:47.538Z,14.20
2023-07-17T03:22:14.212Z,14.34
2023-07-17T03:24:40.842Z,14.53
2023-07-17T03:27:07.502Z,14.10
2023-07-17T03:29:34.170Z,14.50
2023-07-17T03:32:00.813Z,14.51
2023-07-17T03:34:27.573Z,14.52
2023-07-17T03:36:54.372Z,14.43
2023-07-17T03:39:22.074Z,14.35
2023-07-17T03:41:48.755Z,14.43
2023-07-17T03:44:15.423Z,14.45
2023-07-17T03:46:42.392Z,14.40
2023-07-17T03:49:09.091Z,14.40
2023-07-17T03:51:35.844Z,14.39
2023-07-17T03:54:02.584Z,14.37
2023-07-17T03:56:30.095Z,14.41
2023-07-17T03:58:57.316Z,14.42
2023-07-17T04:01:24.232Z,13.93
2023-07-17T04:03:52.396Z,14.51
2023-07-17T04:06:20.532Z,14.37
2023-07-17T04:08:47.876Z,14.46
2023-07-17T04:11:15.676Z,14.55
2023-07-17T04:13:43.054Z,14.51
2023-07-17T04:16:10.048Z,14.43
2023-07-17T04:18:37.247Z,14.53
2023-07-17T04:21:03.857Z,14.64
2023-07-17T04:23:30.958Z,14.65
2023-07-17T04:26:00.086Z,14.32
2023-07-17T04:28:26.795Z,14.72
2023-07-17T04:30:54.960Z,14.70
2023-07-17T04:33:21.624Z,14.82
2023-07-17T04:35:48.309Z,14.86
2023-07-17T04:38:15.895Z,14.91
2023-07-17T04:40:42.590Z,14.90
2023-07-17T04:43:10.769Z,15.14
2023-07-17T04:45:44.218Z,15.02
2023-07-17T04:48:16.617Z,15.17
2023-07-17T04:50:46.041Z,15.14
2023-07-17T04:53:13.603Z,15.17
2023-07-17T04:55:40.265Z,14.84
2023-07-17T04:58:06.906Z,15.31
2023-07-17T05:00:36.640Z,15.41
2023-07-17T05:03:04.639Z,15.42
2023-07-17T05:05:31.345Z,15.49
2023-07-17T05:07:59.706Z,15.65
2023-07-17T05:10:27.845Z,15.56
2023-07-17T05:12:55.346Z,15.64
2023-07-17T05:15:22.054Z,15.91
2023-07-17T05:17:50.906Z,15.95
2023-07-17T05:20:17.653Z,15.89
2023-07-17T05:22:44.536Z,16.01
2023-07-17T05:25:11.187Z,15.98
2023-07-17T05:27:37.942Z,16.13
2023-07-17T05:30:05.127Z,16.19
2023-07-17T05:32:32.351Z,16.25
2023-07-17T05:34:59.024Z,16.45
2023-07-17T05:37:25.715Z,16.41
2023-07-17T05:39:54.562Z,16.47
2023-07-17T05:42:21.550Z,16.59
2023-07-17T05:44:48.296Z,16.39
2023-07-17T05:47:15.048Z,17.33
2023-07-17T05:49:41.727Z,17.48
2023-07-17T05:52:09.548Z,17.66
2023-07-17T05:54:36.269Z,18.01
2023-07-17T05:57:03.146Z,17.28
2023-07-17T05:59:31.810Z,18.53
2023-07-17T06:01:59.583Z,18.55
2023-07-17T06:04:26.573Z,19.04
2023-07-17T06:06:53.314Z,19.22
2023-07-17T06:09:20.272Z,19.37
2023-07-17T06:11:46.909Z,19.72
2023-07-17T06:14:13.914Z,19.56
2023-07-17T06:16:40.654Z,19.56
2023-07-17T06:19:07.352Z,20.08
2023-07-17T06:21:34.269Z,19.75
2023-07-17T06:24:00.804Z,20.37
2023-07-17T06:26:29.680Z,20.33
2023-07-17T06:28:56.280Z,20.41
2023-07-17T06:31:22.896Z,20.80
2023-07-17T06:33:49.462Z,20.74
2023-07-17T06:36:16.319Z,20.67
2023-07-17T06:38:42.978Z,20.71
2023-07-17T06:41:09.584Z,21.08
2023-07-17T06:43:36.208Z,21.37
2023-07-17T06:46:03.300Z,21.38
2023-07-17T06:48:30.000Z,21.27
2023-07-17T06:50:56.646Z,21.55
2023-07-17T06:53:23.268Z,21.47
2023-07-17T06:56:00.884Z,21.24
2023-07-17T06:58:28.395Z,21.47
2023-07-17T07:00:59.278Z,21.90
2023-07-17T07:03:27.616Z,21.37
2023-07-17T07:06:00.381Z,21.91
2023-07-17T07:08:28.751Z,21.90
2023-07-17T07:10:57.061Z,22.39
2023-07-17T07:13:24.617Z,21.40
2023-07-17T07:15:51.920Z,21.54
2023-07-17T07:18:19.610Z,21.58
2023-07-17T07:20:47.677Z,21.70
2023-07-17T07:23:15.024Z,21.65
2023-07-17T07:25:42.837Z,21.43
2023-07-17T07:28:09.525Z,21.45
2023-07-17T07:30:36.162Z,21.49
2023-07-17T07:33:02.816Z,21.57
2023-07-17T07:35:29.597Z,21.23
2023-07-17T07:37:56.157Z,21.35
2023-07-17T07:40:22.991Z,21.38
2023-07-17T07:42:49.711Z,21.15
2023-07-17T07:45:18.161Z,21.81
2023-07-17T07:47:44.811Z,21.87
2023-07-17T07:50:11.786Z,21.98
2023-07-17T07:52:38.440Z,22.66
2023-07-17T07:55:06.223Z,22.70
2023-07-17T07:57:32.836Z,23.47
2023-07-17T07:59:59.464Z,23.62
2023-07-17T08:02:26.172Z,23.35
2023-07-17T08:04:52.896Z,23.52
2023-07-17T08:07:19.564Z,23.55
2023-07-17T08:09:46.142Z,23.38
2023-07-17T08:12:12.783Z,23.42
2023-07-17T08:14:39.412Z,23.93
2023-07-17T08:17:06.575Z,23.92
2023-07-17T08:19:33.218Z,24.15
2023-07-17T08:21:59.808Z,24.43
2023-07-17T08:24:26.414Z,24.97
2023-07-17T08:26:53.110Z,25.06
2023-07-17T08:29:19.765Z,25.01
2023-07-17T08:31:47.471Z,25.42
2023-07-17T08:34:14.192Z,24.89
2023-07-17T08:36:40.857Z,24.96
2023-07-17T08:39:07.458Z,25.10
2023-07-17T08:41:36.360Z,24.93
2023-07-17T08:44:03.556Z,25.23
2023-07-17T08:46:32.752Z,25.26
2023-07-17T08:49:01.496Z,25.24
2023-07-17T08:51:29.099Z,25.42
2023-07-17T08:54:08.580Z,25.21
2023-07-17T08:56:45.521Z,25.55
2023-07-17T08:59:12.635Z,25.84
2023-07-17T09:01:40.333Z,26.09
2023-07-17T09:04:07.712Z,25.82
2023-07-17T09:06:34.318Z,25.55
2023-07-17T09:09:01.712Z,25.65
2023-07-17T09:11:28.274Z,26.06
2023-07-17T09:13:54.888Z,26.15
2023-07-17T09:16:24.065Z,25.94
2023-07-17T09:18:52.957Z,26.18
2023-07-17T09:21:24.712Z,25.82
2023-07-17T09:23:55.995Z,25.94
2023-07-17T09:26:26.496Z,26.15
2023-07-17T09:28:56.705Z,26.28
2023-07-17T09:31:26.976Z,26.51
2023-07-17T09:33:54.982Z,26.27
2023-07-17T09:36:22.737Z,26.16
2023-07-17T09:38:57.820Z,26.11
2023-07-17T09:41:25.703Z,26.14
2023-07-17T09:44:06.117Z,26.00
2023-07-17T09:46:36.158Z,26.39
2023-07-17T09:49:10.164Z,26.45
2023-07-17T09:51:37.618Z,26.03
2023-07-17T09:54:04.999Z,26.31
2023-07-17T09:56:32.970Z,26.20
2023-07-17T09:59:06.394Z,26.92
2023-07-17T10:01:34.016Z,27.20
2023-07-17T10:04:06.798Z,26.97
2023-07-17T10:06:34.569Z,27.22
2023-07-17T10:09:03.035Z,27.40
2023-07-17T10:11:29.876Z,27.66
2023-07-17T10:13:56.797Z,27.65
2023-07-17T10:16:27.114Z,27.77
2023-07-17T10:18:57.831Z,28.18
2023-07-17T10:21:24.501Z,28.54
2023-07-17T10:23:51.987Z,28.95
2023-07-17T10:26:22.457Z,28.56
2023-07-17T10:28:50.800Z,29.11
2023-07-17T10:31:22.735Z,28.38
2023-07-17T10:33:59.388Z,29.32
2023-07-17T10:36:47.375Z,29.76
2023-07-17T10:39:19.725Z,29.82
2023-07-17T10:41:50.930Z,29.83
2023-07-17T10:44:21.162Z,29.23
2023-07-17T10:46:48.446Z,28.08
2023-07-17T10:49:17.367Z,27.79
2023-07-17T10:51:45.903Z,28.92
2023-07-17T10:54:13.683Z,29.62
2023-07-17T10:56:42.040Z,29.84
2023-07-17T10:59:08.634Z,30.50
2023-07-17T11:01:35.260Z,30.82
2023-07-17T11:04:01.979Z,31.30
2023-07-17T11:06:29.216Z,30.60
2023-07-17T11:08:56.152Z,30.58
2023-07-17T11:11:23.746Z,29.64
2023-07-17T11:13:50.980Z,29.08
2023-07-17T11:16:17.666Z,29.32
2023-07-17T11:18:48.228Z,30.51
2023-07-17T11:21:16.544Z,31.38
2023-07-17T11:23:53.487Z,30.54
2023-07-17T11:26:32.476Z,31.45
2023-07-17T11:29:00.820Z,32.14
2023-07-17T11:31:30.642Z,32.19
2023-07-17T11:33:58.763Z,31.77
2023-07-17T11:36:26.534Z,31.24
2023-07-17T11:38:57.050Z,31.51
2023-07-17T11:41:25.779Z,31.78
2023-07-17T11:43:59.173Z,32.22
2023-07-17T11:46:26.405Z,32.01
2023-07-17T11:48:54.953Z,31.81
2023-07-17T11:51:24.980Z,31.67
2023-07-17T11:53:57.108Z,31.86
2023-07-17T11:56:42.217Z,32.20
2023-07-17T11:59:22.764Z,32.10
2023-07-17T12:01:50.031Z,32.37
2023-07-17T12:04:23.814Z,32.13
2023-07-17T12:06:51.137Z,32.64
2023-07-17T12:09:19.180Z,32.80
2023-07-17T12:11:46.796Z,32.66
2023-07-17T12:14:15.349Z,31.79
2023-07-17T12:16:42.719Z,30.16
2023-07-17T12:19:10.125Z,29.26
2023-07-17T12:21:38.935Z,29.10
2023-07-17T12:24:08.777Z,29.65
2023-07-17T12:26:35.878Z,31.50
2023-07-17T12:29:04.026Z,31.48
2023-07-17T12:31:31.107Z,31.19
2023-07-17T12:33:57.809Z,29.74
2023-07-17T12:36:24.390Z,29.86
2023-07-17T12:38:51.052Z,30.95
2023-07-17T12:41:19.816Z,32.74
2023-07-17T12:43:46.680Z,32.49
2023-07-17T12:46:13.403Z,31.80
2023-07-17T12:48:40.123Z,31.49
2023-07-17T12:51:06.748Z,31.64
2023-07-17T12:53:34.194Z,31.17
2023-07-17T12:56:16.229Z,30.79
2023-07-17T12:58:46.563Z,30.48
2023-07-17T13:01:13.648Z,30.18
2023-07-17T13:03:40.389Z,30.22
2023-07-17T13:06:07.062Z,31.44
2023-07-17T13:08:33.670Z,31.66
2023-07-17T13:11:00.286Z,32.40
2023-07-17T13:13:26.883Z,32.69
2023-07-17T13:15:53.510Z,32.98
2023-07-17T13:18:20.200Z,32.74
2023-07-17T13:20:47.136Z,32.08
2023-07-17T13:23:13.771Z,31.73
2023-07-17T13:25:40.424Z,31.93
2023-07-17T13:28:07.040Z,31.53
2023-07-17T13:30:33.723Z,30.10
2023-07-17T13:33:00.374Z,28.26
2023-07-17T13:35:27.071Z,25.89
2023-07-17T13:37:53.654Z,24.82
2023-07-17T13:40:24.055Z,23.80
2023-07-17T13:42:50.792Z,22.69
2023-07-17T13:45:17.442Z,22.36
2023-07-17T13:47:44.105Z,22.34
2023-07-17T13:50:11.003Z,21.62
2023-07-17T13:52:37.658Z,20.52
2023-07-17T13:55:05.018Z,20.44
2023-07-17T13:57:31.698Z,20.08
2023-07-17T13:59:58.352Z,19.94
2023-07-17T14:02:25.058Z,20.08
2023-07-17T14:04:51.771Z,20.69
2023-07-17T14:07:18.362Z,20.92
2023-07-17T14:09:44.963Z,20.29
2023-07-17T14:12:11.804Z,21.48
2023-07-17T14:14:38.401Z,21.60
2023-07-17T14:17:05.581Z,21.57
2023-07-17T14:19:32.217Z,21.24
2023-07-17T14:21:58.832Z,21.09
2023-07-17T14:24:25.510Z,20.92
2023-07-17T14:26:52.206Z,21.15
2023-07-17T14:29:18.795Z,21.19
2023-07-17T14:31:45.441Z,21.18
2023-07-17T14:34:12.052Z,20.89
2023-07-17T14:36:38.652Z,20.77
2023-07-17T14:39:05.235Z,20.80
2023-07-17T14:41:33.642Z,20.83
2023-07-17T14:44:00.589Z,20.72
2023-07-17T14:46:33.927Z,20.84
2023-07-17T14:49:00.693Z,20.82
2023-07-17T14:51:27.366Z,21.07
2023-07-17T14:53:54.959Z,21.24
2023-07-17T14:56:21.840Z,21.41
2023-07-17T14:58:48.783Z,21.60
2023-07-17T15:01:15.565Z,22.17
2023-07-17T15:03:42.316Z,22.86
2023-07-17T15:06:08.992Z,22.67
2023-07-17T15:08:35.596Z,22.92
2023-07-17T15:11:03.787Z,22.69
2023-07-17T15:13:37.282Z,22.19
2023-07-17T15:16:06.869Z,22.08
2023-07-17T15:18:33.505Z,22.97
2023-07-17T15:21:00.191Z,24.47
2023-07-17T15:23:26.898Z,24.14
2023-07-17T15:25:53.632Z,23.66
2023-07-17T15:28:20.262Z,23.41
2023-07-17T15:30:46.894Z,23.89
2023-07-17T15:33:13.609Z,26.58
2023-07-17T15:35:40.745Z,28.37
2023-07-17T15:38:07.484Z,29.64
2023-07-17T15:40:35.152Z,29.00
2023-07-17T15:43:06.274Z,27.54
2023-07-17T15:45:33.326Z,25.96
2023-07-17T15:47:59.919Z,25.28
2023-07-17T15:50:26.734Z,25.75
2023-07-17T15:52:53.341Z,25.09
2023-07-17T15:55:22.593Z,25.48
2023-07-17T15:57:49.664Z,26.21
2023-07-17T16:00:16.764Z,26.55
2023-07-17T16:02:45.035Z,27.57
2023-07-17T16:05:12.230Z,27.57
2023-07-17T16:07:38.865Z,26.93
2023-07-17T16:10:06.015Z,27.13
2023-07-17T16:12:32.684Z,28.44
2023-07-17T16:14:59.331Z,29.14
2023-07-17T16:17:25.941Z,29.47
2023-07-17T16:19:52.667Z,29.84
2023-07-17T16:22:19.331Z,29.41
2023-07-17T16:24:45.966Z,29.05
2023-07-17T16:27:12.613Z,28.72
2023-07-17T16:29:39.294Z,28.85
2023-07-17T16:32:06.838Z,29.42
2023-07-17T16:34:34.367Z,30.10
2023-07-17T16:37:01.003Z,29.93
2023-07-17T16:39:27.726Z,28.81
2023-07-17T16:41:54.338Z,27.77
2023-07-17T16:44:20.939Z,27.62
2023-07-17T16:46:51.790Z,27.43
2023-07-17T16:49:18.422Z,25.15
2023-07-17T16:51:45.004Z,25.32
2023-07-17T16:54:11.599Z,24.83
2023-07-17T16:56:38.230Z,24.13
2023-07-17T16:59:05.184Z,24.76
2023-07-17T17:01:32.734Z,24.76
2023-07-17T17:03:59.612Z,24.79
2023-07-17T17:06:26.909Z,24.42
2023-07-17T17:09:08.257Z,24.02
2023-07-17T17:11:34.878Z,23.41
2023-07-17T17:14:01.414Z,24.03
2023-07-17T17:16:28.073Z,24.78
2023-07-17T17:18:54.652Z,24.66
2023-07-17T17:21:21.210Z,24.22
2023-07-17T17:23:48.231Z,23.69
2023-07-17T17:26:14.841Z,23.20
2023-07-17T17:28:41.593Z,22.96
2023-07-17T17:31:08.283Z,22.52
2023-07-17T17:33:34.926Z,22.48
2023-07-17T17:36:01.497Z,21.95
2023-07-17T17:38:29.291Z,22.28
2023-07-17T17:40:55.918Z,22.06
2023-07-17T17:43:22.565Z,21.91
2023-07-17T17:45:49.474Z,21.89
2023-07-17T17:48:20.508Z,21.95
2023-07-17T17:50:47.531Z,22.07
2023-07-17T17:53:14.418Z,21.91
2023-07-17T17:55:41.095Z,21.75
2023-07-17T17:58:08.866Z,21.61
2023-07-17T18:00:36.765Z,21.55
2023-07-17T18:03:04.610Z,21.58
2023-07-17T18:05:31.413Z,21.46
2023-07-17T18:07:58.748Z,21.52
2023-07-17T18:10:26.179Z,21.32
2023-07-17T18:12:53.306Z,21.34
2023-07-17T18:15:19.963Z,21.33
2023-07-17T18:17:46.553Z,20.85
2023-07-17T18:20:13.229Z,21.31
2023-07-17T18:22:40.214Z,21.20
2023-07-17T18:25:08.823Z,20.73
2023-07-17T18:27:37.592Z,21.36
2023-07-17T18:30:05.090Z,21.57
2023-07-17T18:32:31.798Z,21.68
2023-07-17T18:34:58.402Z,21.60
2023-07-17T18:37:24.957Z,21.80
2023-07-17T18:39:52.067Z,21.88
2023-07-17T18:42:19.497Z,21.81
2023-07-17T18:44:46.048Z,21.53
2023-07-17T18:47:12.699Z,21.40
2023-07-17T18:49:39.860Z,21.50
2023-07-17T18:52:07.047Z,21.81
2023-07-17T18:54:33.693Z,21.76
2023-07-17T18:57:00.311Z,21.81
2023-07-17T18:59:26.911Z,21.50
2023-07-17T19:01:56.207Z,21.13
2023-07-17T19:04:24.275Z,20.89
2023-07-17T19:06:52.403Z,20.64
2023-07-17T19:09:22.399Z,20.34
2023-07-17T19:11:49.134Z,20.18
2023-07-17T19:14:15.747Z,19.97
2023-07-17T19:16:42.423Z,19.30
2023-07-17T19:19:09.019Z,19.60
2023-07-17T19:21:36.881Z,19.41
2023-07-17T19:24:04.391Z,19.35
2023-07-17T19:26:31.153Z,18.40
2023-07-17T19:28:58.852Z,18.66
2023-07-17T19:31:27.429Z,18.82
2023-07-17T19:33:55.511Z,18.96
2023-07-17T19:36:22.398Z,18.72
2023-07-17T19:38:49.899Z,18.78
2023-07-17T19:41:17.338Z,18.61
2023-07-17T19:43:44.236Z,18.33
2023-07-17T19:46:12.745Z,18.05
2023-07-17T19:48:39.650Z,17.74
2023-07-17T19:51:06.370Z,18.15
2023-07-17T19:53:33.074Z,18.12
2023-07-17T19:56:01.977Z,17.94
2023-07-17T19:58:28.938Z,17.42
2023-07-17T20:00:58.861Z,17.82
2023-07-17T20:03:27.342Z,17.39
2023-07-17T20:05:54.126Z,17.67
2023-07-17T20:08:20.842Z,17.60
2023-07-17T20:10:47.642Z,17.67
2023-07-17T20:13:19.901Z,17.50
2023-07-17T20:15:47.794Z,17.64
2023-07-17T20:18:16.002Z,17.51
2023-07-17T20:20:43.213Z,17.50
2023-07-17T20:23:10.404Z,17.41
2023-07-17T20:25:37.128Z,17.31
2023-07-17T20:28:03.838Z,17.15
2023-07-17T20:30:31.158Z,17.06
2023-07-17T20:32:57.831Z,16.98
2023-07-17T20:35:29.142Z,16.93
2023-07-17T20:37:57.009Z,16.80
2023-07-17T20:40:23.611Z,16.70
2023-07-17T20:42:53.540Z,16.51
2023-07-17T20:45:33.532Z,16.41
2023-07-17T20:48:01.604Z,16.38
2023-07-17T20:50:28.675Z,16.32
2023-07-17T20:52:57.856Z,15.96
2023-07-17T20:55:24.854Z,15.87
2023-07-17T20:57:51.842Z,15.80
2023-07-17T21:00:18.600Z,15.81
2023-07-17T21:02:46.580Z,15.35
2023-07-17T21:05:13.541Z,15.37
2023-07-17T21:07:40.275Z,15.47
2023-07-17T21:10:07.419Z,15.30
2023-07-17T21:12:35.037Z,14.64
2023-07-17T21:15:03.978Z,15.00
2023-07-17T21:17:30.658Z,14.97
2023-07-17T21:19:57.259Z,14.82
2023-07-17T21:22:24.791Z,14.71
2023-07-17T21:24:51.468Z,14.71
2023-07-17T21:27:18.150Z,14.65
2023-07-17T21:29:44.752Z,14.53
2023-07-17T21:32:11.421Z,14.51
2023-07-17T21:34:38.063Z,13.95
2023-07-17T21:37:04.949Z,14.25
2023-07-17T21:39:32.613Z,14.23
2023-07-17T21:41:59.307Z,14.26
2023-07-17T21:44:26.052Z,14.13
2023-07-17T21:46:52.750Z,14.00
2023-07-17T21:49:19.412Z,14.04
2023-07-17T21:51:46.195Z,13.94
2023-07-17T21:54:14.164Z,13.91
2023-07-17T21:56:40.861Z,14.00
2023-07-17T21:59:09.000Z,13.82
2023-07-17T22:01:35.732Z,13.74
2023-07-17T22:04:02.641Z,13.92
2023-07-17T22:06:29.349Z,13.76
2023-07-17T22:08:56.563Z,13.87
2023-07-17T22:11:24.159Z,13.61
2023-07-17T22:13:51.840Z,13.76
2023-07-17T22:16:18.549Z,13.26
2023-07-17T22:18:45.227Z,13.81
2023-07-17T22:21:11.991Z,13.23
2023-07-17T22:23:38.736Z,13.61
2023-07-17T22:26:05.533Z,13.55
2023-07-17T22:28:32.147Z,13.62
2023-07-17T22:30:58.844Z,13.67
2023-07-17T22:33:25.675Z,13.42
2023-07-17T22:35:52.345Z,13.45
2023-07-17T22:38:19.014Z,13.57
2023-07-17T22:40:45.670Z,12.97
2023-07-17T22:43:12.567Z,13.08
2023-07-17T22:45:42.675Z,13.44
2023-07-17T22:48:09.858Z,12.99
2023-07-17T22:50:36.510Z,13.48
2023-07-17T22:53:03.339Z,13.37
2023-07-17T22:55:30.101Z,13.38
2023-07-17T22:57:57.115Z,13.18
2023-07-17T23:00:23.912Z,13.26
2023-07-17T23:02:50.878Z,12.88
2023-07-17T23:05:17.743Z,12.82
2023-07-17T23:07:44.386Z,13.32
2023-07-17T23:10:11.930Z,13.46
2023-07-17T23:12:42.041Z,13.34
2023-07-17T23:15:11.042Z,13.34
2023-07-17T23:17:37.717Z,13.40
2023-07-17T23:20:06.290Z,13.29
2023-07-17T23:22:32.969Z,13.24
2023-07-17T23:25:01.088Z,13.41
2023-07-17T23:27:27.890Z,13.41
2023-07-17T23:29:55.046Z,13.41
2023-07-17T23:32:23.022Z,13.53
2023-07-17T23:34:49.810Z,13.57
2023-07-17T23:37:18.358Z,13.48
2023-07-17T23:39:47.152Z,13.46
2023-07-17T23:42:14.416Z,12.37
2023-07-17T23:44:42.104Z,13.70
2023-07-17T23:47:08.997Z,13.51
2023-07-17T23:49:39.270Z,13.59
2023-07-17T23:52:06.481Z,13.19
2023-07-17T23:54:33.136Z,13.60
2023-07-17T23:56:59.815Z,13.71
2023-07-17T23:59:31.002Z,13.67
